Time;durP1;ratioP1;P1;durP2;ratioP2;P2;SDS_P1;SDS_P2;PMS_P1;PMS_P2;Temp;Humidity;BMP_temperature;BMP_pressure;BME280_temperature;BME280_humidity;BME280_pressure;Samples;Min_cycle;Max_cycle;Signal;HPM_P1;HPM_P2
2024/01/05 00:01:09;;;;;;;6.60;1.40;;;5.00;99.90;;;;;;5059838;28;20047;-65
2024/01/05 00:03:34;;;;;;;9.27;1.60;;;5.00;99.90;;;;;;5054329;28;20505;-65
2024/01/05 00:06:00;;;;;;;5.15;1.08;;;5.00;99.90;;;;;;5061703;28;20056;-65
2024/01/05 00:08:26;;;;;;;15.77;2.03;;;5.10;99.90;;;;;;5060778;28;20060;-68
2024/01/05 00:10:51;;;;;;;12.48;1.92;;;5.10;99.90;;;;;;5055920;28;20555;-65
2024/01/05 00:13:17;;;;;;;7.82;1.80;;;5.10;99.90;;;;;;5056835;28;20113;-66
2024/01/05 00:15:42;;;;;;;8.25;1.25;;;5.10;99.90;;;;;;5057059;28;20056;-64
2024/01/05 00:18:08;;;;;;;6.60;1.27;;;5.10;99.90;;;;;;5049024;28;20033;-63
2024/01/05 00:20:34;;;;;;;11.20;1.20;;;5.10;99.90;;;;;;5046159;28;20049;-65
2024/01/05 00:22:59;;;;;;;10.82;1.73;;;5.10;99.90;;;;;;5048990;28;20343;-63
2024/01/05 00:25:25;;;;;;;8.52;1.45;;;5.10;99.90;;;;;;5047802;28;20472;-64
2024/01/05 00:27:54;;;;;;;6.78;1.42;;;5.10;99.90;;;;;;5046836;28;20060;-65
2024/01/05 00:30:19;;;;;;;5.40;1.40;;;5.10;99.90;;;;;;5043710;28;20124;-65
2024/01/05 00:32:45;;;;;;;6.80;1.30;;;5.10;99.90;;;;;;5045141;28;20159;-64
2024/01/05 00:35:11;;;;;;;6.00;1.20;;;5.10;99.90;;;;;;5048456;28;20036;-64
2024/01/05 00:37:36;;;;;;;5.93;1.15;;;5.10;99.90;;;;;;5048012;28;20677;-63
2024/01/05 00:40:03;;;;;;;3.13;1.10;;;5.20;99.90;;;;;;5042572;28;20040;-63
2024/01/05 00:42:29;;;;;;;4.40;0.90;;;5.20;99.90;;;;;;5045647;28;20082;-62
2024/01/05 00:44:54;;;;;;;6.90;1.00;;;5.20;99.90;;;;;;5046753;28;20114;-64
2024/01/05 00:47:20;;;;;;;2.05;0.50;;;5.20;99.90;;;;;;5041731;28;20029;-64
2024/01/05 00:49:45;;;;;;;2.00;0.82;;;5.20;99.90;;;;;;5045495;28;20032;-64
2024/01/05 00:52:12;;;;;;;1.45;0.50;;;5.20;99.90;;;;;;5048633;28;20432;-63
2024/01/05 00:54:38;;;;;;;3.17;0.73;;;5.20;99.90;;;;;;5042105;28;20041;-63
2024/01/05 00:57:04;;;;;;;3.25;0.75;;;5.30;99.90;;;;;;5047613;28;20452;-64
2024/01/05 00:59:29;;;;;;;4.13;0.70;;;5.30;99.90;;;;;;5042374;28;20464;-63
2024/01/05 01:01:55;;;;;;;2.20;0.40;;;5.30;99.90;;;;;;5045212;28;20060;-64
2024/01/05 01:04:21;;;;;;;2.25;0.60;;;5.20;99.90;;;;;;5041081;28;20040;-64
2024/01/05 01:06:46;;;;;;;2.92;0.70;;;5.20;99.90;;;;;;5046104;28;20033;-65
2024/01/05 01:09:12;;;;;;;2.40;0.57;;;5.30;99.90;;;;;;5043819;28;20047;-63
2024/01/05 01:11:37;;;;;;;5.25;1.17;;;5.30;99.90;;;;;;5046523;28;20075;-64
2024/01/05 01:14:03;;;;;;;3.72;1.17;;;5.20;99.90;;;;;;5046332;28;20036;-63
2024/01/05 01:16:29;;;;;;;5.60;1.40;;;5.10;99.90;;;;;;5047606;28;20045;-64
2024/01/05 01:18:54;;;;;;;2.28;1.17;;;4.90;99.90;;;;;;5040032;28;20591;-63
2024/01/05 01:21:20;;;;;;;2.45;1.05;;;4.90;99.90;;;;;;5047668;28;20044;-63
2024/01/05 01:23:45;;;;;;;2.22;0.88;;;4.80;99.90;;;;;;5041414;28;20037;-65
2024/01/05 01:26:11;;;;;;;2.80;1.10;;;4.70;99.90;;;;;;5047688;28;20596;-63
2024/01/05 01:28:37;;;;;;;2.05;0.93;;;4.70;99.90;;;;;;5044570;28;20559;-64
2024/01/05 01:31:03;;;;;;;3.17;0.90;;;4.70;99.90;;;;;;5046991;28;20037;-61
2024/01/05 01:33:28;;;;;;;2.95;1.15;;;4.80;99.90;;;;;;5039063;28;20119;-62
2024/01/05 01:35:54;;;;;;;3.00;0.85;;;4.80;99.90;;;;;;5046740;28;20045;-62
2024/01/05 01:38:19;;;;;;;6.43;0.80;;;4.80;99.90;;;;;;5042690;28;20041;-62
2024/01/05 01:40:46;;;;;;;4.25;1.42;;;4.90;99.90;;;;;;5047046;28;20041;-63
2024/01/05 01:43:24;;;;;;;2.47;0.60;;;4.90;99.90;;;;;;5050090;28;20045;-60
2024/01/05 01:45:51;;;;;;;1.52;0.73;;;4.90;99.90;;;;;;5045105;28;20086;-62
2024/01/05 01:48:18;;;;;;;1.80;0.70;;;4.90;99.90;;;;;;5039836;28;20072;-61
2024/01/05 01:50:44;;;;;;;5.65;0.77;;;5.00;99.90;;;;;;5045462;28;20082;-61
2024/01/05 01:53:13;;;;;;;3.15;1.02;;;5.00;99.90;;;;;;5043445;28;20037;-62
2024/01/05 01:55:40;;;;;;;3.60;1.13;;;5.00;99.90;;;;;;5045695;28;20055;-60
2024/01/05 01:58:05;;;;;;;8.45;1.10;;;5.00;99.90;;;;;;5043164;28;20771;-61
2024/01/05 02:00:33;;;;;;;1.65;0.55;;;5.10;99.90;;;;;;5043846;28;20068;-63
2024/01/05 02:03:00;;;;;;;2.83;0.93;;;5.10;99.90;;;;;;5042501;28;20128;-61
2024/01/05 02:05:25;;;;;;;6.43;1.30;;;5.10;99.90;;;;;;5047352;28;20106;-63
2024/01/05 02:07:52;;;;;;;3.47;1.23;;;5.10;99.90;;;;;;5044671;28;20044;-62
2024/01/05 02:10:18;;;;;;;4.90;1.13;;;5.00;99.90;;;;;;5049262;28;20282;-65
2024/01/05 02:12:45;;;;;;;10.32;1.58;;;5.00;99.90;;;;;;5047177;28;20074;-63
2024/01/05 02:15:10;;;;;;;5.53;1.50;;;5.10;99.90;;;;;;5045607;28;20044;-63
2024/01/05 02:17:36;;;;;;;17.30;2.40;;;5.00;99.90;;;;;;5045617;28;20524;-61
2024/01/05 02:20:02;;;;;;;7.00;1.77;;;5.00;99.90;;;;;;5043555;28;20398;-62
2024/01/05 02:22:29;;;;;;;10.80;2.20;;;5.10;99.90;;;;;;5047662;28;20045;-63
2024/01/05 02:24:55;;;;;;;12.38;1.73;;;5.10;99.90;;;;;;5044771;28;20045;-64
2024/01/05 02:27:22;;;;;;;9.57;2.03;;;5.10;99.90;;;;;;5045426;28;20594;-64
2024/01/05 02:29:48;;;;;;;6.80;2.08;;;5.20;99.90;;;;;;5043819;28;20123;-61
2024/01/05 02:32:14;;;;;;;8.73;1.77;;;5.20;99.90;;;;;;5047548;28;20112;-62
2024/01/05 02:34:39;;;;;;;9.55;1.88;;;5.30;99.90;;;;;;5036637;28;20041;-63
2024/01/05 02:37:05;;;;;;;13.15;2.92;;;5.30;99.90;;;;;;5049651;28;20045;-63
2024/01/05 02:39:30;;;;;;;10.02;2.30;;;5.30;99.90;;;;;;5048115;28;20117;-62
2024/01/05 02:41:56;;;;;;;9.60;2.53;;;5.30;99.90;;;;;;5045333;28;20825;-60
2024/01/05 02:44:21;;;;;;;9.15;2.60;;;5.30;99.90;;;;;;5044735;28;20076;-61
2024/01/05 02:46:47;;;;;;;11.48;2.28;;;5.30;99.90;;;;;;5047260;28;20049;-63
2024/01/05 02:49:12;;;;;;;13.32;2.58;;;5.30;99.90;;;;;;5043071;28;20519;-63
2024/01/05 02:51:39;;;;;;;11.52;2.00;;;5.30;99.90;;;;;;5045039;28;20065;-62
2024/01/05 02:54:05;;;;;;;6.53;1.92;;;5.40;99.90;;;;;;5044203;28;20048;-63
2024/01/05 02:56:33;;;;;;;9.25;2.60;;;5.40;99.90;;;;;;5046966;28;20045;-63
2024/01/05 02:58:59;;;;;;;16.65;2.35;;;5.40;99.90;;;;;;5043459;28;20060;-64
2024/01/05 03:01:25;;;;;;;6.70;2.28;;;5.40;99.90;;;;;;5045891;28;20041;-62
2024/01/05 03:03:51;;;;;;;10.02;2.60;;;5.40;99.90;;;;;;5044361;28;20041;-63
2024/01/05 03:06:18;;;;;;;10.00;2.17;;;5.40;99.90;;;;;;5044544;28;20029;-63
2024/01/05 03:08:44;;;;;;;14.63;2.92;;;5.40;99.90;;;;;;5048748;28;20290;-64
2024/01/05 03:11:10;;;;;;;14.90;3.45;;;5.40;99.90;;;;;;5042714;28;20211;-62
2024/01/05 03:13:36;;;;;;;10.55;2.15;;;5.40;99.90;;;;;;5045397;28;20694;-63
2024/01/05 03:16:02;;;;;;;11.60;2.45;;;5.50;99.90;;;;;;5045881;28;20051;-63
2024/01/05 03:18:27;;;;;;;10.80;2.50;;;5.50;99.90;;;;;;5046805;28;20037;-64
2024/01/05 03:20:53;;;;;;;11.98;2.67;;;5.50;99.90;;;;;;5041425;28;20155;-63
2024/01/05 03:23:19;;;;;;;12.13;2.45;;;5.50;99.90;;;;;;5043470;28;20624;-62
2024/01/05 03:25:45;;;;;;;8.73;2.60;;;5.50;99.90;;;;;;5044467;28;20053;-63
2024/01/05 03:28:11;;;;;;;11.57;2.35;;;5.50;99.90;;;;;;5042268;28;20125;-62
2024/01/05 03:30:40;;;;;;;11.57;2.20;;;5.50;99.90;;;;;;5045156;28;20072;-63
2024/01/05 03:33:06;;;;;;;9.02;2.45;;;5.50;99.90;;;;;;5042981;28;20051;-64
2024/01/05 03:35:31;;;;;;;12.52;2.92;;;5.50;99.90;;;;;;5040966;28;20053;-62
2024/01/05 03:37:57;;;;;;;11.15;3.40;;;5.60;99.90;;;;;;5043126;28;20044;-63
2024/01/05 03:40:23;;;;;;;6.68;2.13;;;5.60;99.90;;;;;;5043072;28;20041;-63
2024/01/05 03:42:48;;;;;;;9.02;2.13;;;5.60;99.90;;;;;;5044837;28;20413;-63
2024/01/05 03:45:14;;;;;;;13.15;2.35;;;5.60;99.90;;;;;;5043559;28;20508;-64
2024/01/05 03:47:40;;;;;;;6.93;1.90;;;5.60;99.90;;;;;;5044444;28;20045;-62
2024/01/05 03:50:07;;;;;;;11.93;2.58;;;5.60;99.90;;;;;;5039579;28;20440;-63
2024/01/05 03:52:32;;;;;;;7.72;2.28;;;5.60;99.90;;;;;;5044094;28;20048;-63
2024/01/05 03:54:58;;;;;;;8.52;2.97;;;5.60;99.90;;;;;;5043543;28;20401;-62
2024/01/05 03:57:24;;;;;;;5.32;1.73;;;5.60;99.90;;;;;;5047981;28;20118;-64
2024/01/05 03:59:50;;;;;;;9.20;2.17;;;5.60;99.90;;;;;;5054591;28;20141;-61
2024/01/05 04:02:16;;;;;;;14.63;2.50;;;5.60;99.90;;;;;;5047537;28;20060;-62
2024/01/05 04:04:42;;;;;;;10.18;2.45;;;5.60;99.90;;;;;;5045548;28;20178;-62
2024/01/05 04:07:07;;;;;;;11.57;3.30;;;5.60;99.90;;;;;;5041959;28;20045;-62
2024/01/05 04:09:33;;;;;;;10.65;2.05;;;5.60;99.90;;;;;;5042819;28;20037;-63
2024/01/05 04:11:59;;;;;;;5.50;1.63;;;5.60;99.90;;;;;;5045766;28;20102;-62
2024/01/05 04:14:24;;;;;;;13.30;2.30;;;5.70;99.90;;;;;;5046017;28;20096;-63
2024/01/05 04:16:50;;;;;;;17.98;2.88;;;5.70;99.90;;;;;;5047879;28;20045;-62
2024/01/05 04:19:16;;;;;;;5.82;2.20;;;5.70;99.90;;;;;;5046230;28;20036;-63
2024/01/05 04:21:42;;;;;;;16.40;2.95;;;5.70;99.90;;;;;;5045833;28;20429;-62
2024/01/05 04:24:07;;;;;;;11.60;3.30;;;5.70;99.90;;;;;;5045167;28;20094;-63
2024/01/05 04:26:33;;;;;;;12.13;3.08;;;5.70;99.90;;;;;;5048309;28;20528;-64
2024/01/05 04:28:59;;;;;;;9.50;2.75;;;5.70;99.90;;;;;;5047001;28;20076;-64
2024/01/05 04:31:24;;;;;;;9.88;2.42;;;5.70;99.90;;;;;;5049716;28;20049;-65
2024/01/05 04:33:50;;;;;;;7.28;2.70;;;5.70;99.90;;;;;;5045938;28;20289;-64
2024/01/05 04:36:15;;;;;;;13.30;3.35;;;5.70;99.90;;;;;;5044088;28;20045;-62
2024/01/05 04:38:42;;;;;;;16.73;3.72;;;5.70;99.90;;;;;;5044484;28;20042;-63
2024/01/05 04:41:08;;;;;;;11.50;3.70;;;5.70;99.90;;;;;;5046133;28;20047;-63
2024/01/05 04:43:33;;;;;;;12.02;3.08;;;5.70;99.90;;;;;;5047292;28;20045;-65
2024/01/05 04:46:00;;;;;;;8.40;3.83;;;5.70;99.90;;;;;;5050370;28;20048;-63
2024/01/05 04:48:26;;;;;;;18.10;3.75;;;5.60;99.90;;;;;;5046733;28;20072;-63
2024/01/05 04:50:53;;;;;;;14.23;4.10;;;5.50;99.90;;;;;;5046149;28;20910;-64
2024/01/05 04:53:18;;;;;;;9.77;3.75;;;5.60;99.90;;;;;;5041839;28;20052;-65
2024/01/05 04:55:44;;;;;;;11.23;3.00;;;5.50;99.90;;;;;;5047480;28;20041;-64
2024/01/05 04:58:10;;;;;;;13.27;3.55;;;5.50;99.90;;;;;;5044045;28;20049;-64
2024/01/05 05:00:35;;;;;;;9.95;3.30;;;5.50;99.90;;;;;;5046948;28;20045;-64
2024/01/05 05:03:01;;;;;;;12.80;4.75;;;5.60;99.90;;;;;;5044169;28;20036;-64
2024/01/05 05:05:26;;;;;;;10.88;3.28;;;5.60;99.90;;;;;;5046062;28;20132;-65
2024/01/05 05:07:54;;;;;;;18.05;3.60;;;5.60;99.90;;;;;;5047684;28;20128;-63
2024/01/05 05:10:22;;;;;;;8.23;3.90;;;5.60;99.90;;;;;;5045155;28;20698;-64
2024/01/05 05:12:48;;;;;;;11.73;3.88;;;5.60;99.90;;;;;;5044273;28;20634;-63
2024/01/05 05:15:13;;;;;;;9.73;3.30;;;5.60;99.90;;;;;;5039954;28;20029;-64
2024/01/05 05:17:39;;;;;;;8.80;2.78;;;5.60;99.90;;;;;;5049276;28;20676;-62
2024/01/05 05:20:05;;;;;;;18.08;4.22;;;5.70;99.90;;;;;;5041966;28;20068;-64
2024/01/05 05:22:31;;;;;;;7.50;2.78;;;5.60;99.90;;;;;;5043500;28;20099;-63
2024/01/05 05:24:57;;;;;;;13.05;3.00;;;5.70;99.90;;;;;;5043546;28;20068;-64
2024/01/05 05:27:23;;;;;;;7.63;2.45;;;5.70;99.90;;;;;;5047715;28;20128;-64
2024/01/05 05:29:48;;;;;;;11.93;3.08;;;5.70;99.90;;;;;;5045998;28;20552;-67
2024/01/05 05:32:14;;;;;;;13.48;3.20;;;5.70;99.90;;;;;;5044037;28;20033;-63
2024/01/05 05:34:40;;;;;;;13.20;3.50;;;5.70;99.90;;;;;;5045339;28;20681;-65
2024/01/05 05:37:06;;;;;;;14.07;3.30;;;5.70;99.90;;;;;;5045402;28;20041;-64
2024/01/05 05:39:31;;;;;;;13.57;3.33;;;5.70;99.90;;;;;;5043912;28;20048;-63
2024/01/05 05:41:57;;;;;;;14.75;3.65;;;5.80;99.90;;;;;;5042804;28;20044;-64
2024/01/05 05:44:22;;;;;;;16.23;4.78;;;5.80;99.90;;;;;;5043218;28;20037;-63
2024/01/05 05:46:48;;;;;;;13.00;2.75;;;5.70;99.90;;;;;;5044868;28;20041;-63
2024/01/05 05:49:14;;;;;;;11.70;3.28;;;5.80;99.90;;;;;;5041045;28;20043;-64
2024/01/05 05:51:39;;;;;;;8.23;2.83;;;5.70;99.90;;;;;;5044007;28;20044;-63
2024/01/05 05:54:05;;;;;;;10.35;3.17;;;5.80;99.90;;;;;;5044977;28;20045;-64
2024/01/05 05:56:30;;;;;;;13.38;3.80;;;5.80;99.90;;;;;;5047372;28;20044;-63
2024/01/05 05:58:56;;;;;;;9.77;3.35;;;5.80;99.90;;;;;;5044036;28;20120;-64
2024/01/05 06:01:23;;;;;;;11.40;3.70;;;5.80;99.90;;;;;;5044025;28;20087;-65
2024/01/05 06:03:49;;;;;;;9.00;2.67;;;5.80;99.90;;;;;;5044788;28;20516;-63
2024/01/05 06:06:19;;;;;;;20.67;3.22;;;5.90;99.90;;;;;;5045481;28;20053;-63
2024/01/05 06:08:45;;;;;;;13.20;2.42;;;5.80;99.90;;;;;;5038024;28;20075;-64
2024/01/05 06:11:14;;;;;;;11.95;3.50;;;5.90;99.90;;;;;;5042006;28;20615;-64
2024/01/05 06:13:40;;;;;;;15.85;3.00;;;5.80;99.90;;;;;;5041988;28;20076;-65
2024/01/05 06:16:06;;;;;;;13.23;3.28;;;5.80;99.90;;;;;;5045876;28;20037;-64
2024/01/05 06:18:31;;;;;;;14.40;3.10;;;5.80;99.90;;;;;;5040722;28;20041;-64
2024/01/05 06:20:57;;;;;;;8.20;3.13;;;5.70;99.90;;;;;;5045588;28;20445;-64
2024/01/05 06:23:22;;;;;;;9.90;2.97;;;5.70;99.90;;;;;;5037054;28;20102;-64
2024/01/05 06:25:48;;;;;;;11.25;2.83;;;5.70;99.90;;;;;;5044512;28;20044;-64
2024/01/05 06:28:13;;;;;;;15.20;3.17;;;5.60;99.90;;;;;;5041147;28;20041;-64
2024/01/05 06:30:39;;;;;;;14.20;4.88;;;5.60;99.90;;;;;;5044258;28;20607;-64
2024/01/05 06:33:06;;;;;;;14.82;3.03;;;5.60;99.90;;;;;;5043244;28;20036;-62
2024/01/05 06:35:32;;;;;;;10.98;2.97;;;5.50;99.90;;;;;;5044755;28;20809;-64
2024/01/05 06:37:58;;;;;;;9.45;2.88;;;5.50;99.90;;;;;;5037649;28;20041;-64
2024/01/05 06:40:23;;;;;;;10.95;3.38;;;5.40;99.90;;;;;;5042538;28;20489;-63
2024/01/05 06:42:49;;;;;;;15.85;3.67;;;5.40;99.90;;;;;;5044596;28;20037;-63
2024/01/05 06:45:15;;;;;;;10.55;3.10;;;5.40;99.90;;;;;;5042172;28;20041;-64
2024/01/05 06:47:41;;;;;;;11.30;2.75;;;5.40;99.90;;;;;;5044471;28;20093;-63
2024/01/05 06:50:07;;;;;;;12.15;3.15;;;5.40;99.90;;;;;;5039251;28;20037;-63
2024/01/05 06:52:33;;;;;;;9.30;3.10;;;5.40;99.90;;;;;;5044288;28;20510;-63
2024/01/05 06:54:59;;;;;;;14.90;3.53;;;5.40;99.90;;;;;;5038091;28;20067;-63
2024/01/05 06:57:25;;;;;;;11.32;3.08;;;5.50;99.90;;;;;;5041592;28;20063;-63
2024/01/05 06:59:51;;;;;;;14.32;3.08;;;5.50;99.90;;;;;;5038072;28;20428;-63
2024/01/05 07:02:17;;;;;;;7.90;2.63;;;5.50;99.90;;;;;;5045718;28;20408;-63
2024/01/05 07:04:46;;;;;;;8.07;3.03;;;5.50;99.90;;;;;;5044033;28;20033;-64
2024/01/05 07:07:12;;;;;;;11.63;2.85;;;5.60;99.90;;;;;;5043121;28;20048;-65
2024/01/05 07:09:37;;;;;;;6.80;2.60;;;5.60;99.90;;;;;;5043577;28;20053;-65
2024/01/05 07:12:03;;;;;;;19.52;3.92;;;5.60;99.90;;;;;;5045162;28;20045;-63
2024/01/05 07:14:29;;;;;;;12.82;4.28;;;5.70;99.90;;;;;;5043355;28;20397;-66
2024/01/05 07:16:58;;;;;;;17.98;3.47;;;5.70;99.90;;;;;;5046273;28;20060;-64
2024/01/05 07:19:24;;;;;;;11.85;2.95;;;5.60;99.90;;;;;;5040708;28;20060;-65
2024/01/05 07:21:50;;;;;;;13.95;3.50;;;5.60;99.90;;;;;;5045358;28;20048;-63
2024/01/05 07:24:17;;;;;;;10.52;3.00;;;5.60;99.90;;;;;;5043291;28;20033;-63
2024/01/05 07:26:43;;;;;;;15.13;3.38;;;5.70;99.90;;;;;;5042701;28;20497;-64
2024/01/05 07:29:08;;;;;;;8.65;3.22;;;5.70;99.90;;;;;;5043307;28;20049;-63
2024/01/05 07:31:34;;;;;;;15.90;3.22;;;5.60;99.90;;;;;;5048845;28;20037;-65
2024/01/05 07:34:01;;;;;;;10.98;3.00;;;5.70;99.90;;;;;;5044136;28;20036;-63
2024/01/05 07:36:26;;;;;;;13.18;3.78;;;5.60;99.90;;;;;;5047439;28;20079;-64
2024/01/05 07:38:52;;;;;;;12.07;2.90;;;5.60;99.90;;;;;;5042365;28;20722;-65
2024/01/05 07:41:18;;;;;;;12.57;3.30;;;5.60;99.90;;;;;;5047921;28;20107;-63
2024/01/05 07:43:44;;;;;;;7.88;3.20;;;5.60;99.90;;;;;;5049411;28;20041;-64
2024/01/05 07:46:10;;;;;;;8.88;3.13;;;5.60;99.90;;;;;;5050178;28;20169;-64
2024/01/05 07:48:40;;;;;;;8.70;3.50;;;5.60;99.90;;;;;;5040671;28;20124;-64
2024/01/05 07:51:06;;;;;;;12.43;3.30;;;5.60;99.90;;;;;;5047084;28;20037;-65
2024/01/05 07:53:31;;;;;;;11.70;3.50;;;5.60;99.90;;;;;;5042999;28;20729;-64
2024/01/05 07:56:03;;;;;;;9.00;4.05;;;5.50;99.90;;;;;;5047290;28;20044;-64
2024/01/05 07:58:29;;;;;;;9.77;2.80;;;5.50;99.90;;;;;;5041963;28;20044;-63
2024/01/05 08:00:54;;;;;;;10.30;2.90;;;5.50;99.90;;;;;;5047415;28;20054;-63
2024/01/05 08:03:21;;;;;;;12.15;3.33;;;5.60;99.90;;;;;;5046299;28;20042;-64
2024/01/05 08:05:47;;;;;;;8.95;2.60;;;5.60;99.90;;;;;;5047606;28;20444;-65
2024/01/05 08:08:13;;;;;;;10.95;3.03;;;5.60;99.90;;;;;;5052503;28;20049;-65
2024/01/05 08:10:38;;;;;;;10.10;3.42;;;5.50;99.90;;;;;;5048264;28;20242;-64
2024/01/05 08:13:04;;;;;;;9.73;2.35;;;5.60;99.90;;;;;;5049692;28;20048;-64
2024/01/05 08:15:30;;;;;;;14.20;2.78;;;5.50;99.90;;;;;;5047451;28;20098;-65
2024/01/05 08:17:56;;;;;;;11.98;2.92;;;5.60;99.90;;;;;;5051881;28;20055;-63
2024/01/05 08:20:22;;;;;;;6.10;2.17;;;5.60;99.90;;;;;;5043195;28;20128;-64
2024/01/05 08:22:47;;;;;;;8.57;2.33;;;5.60;99.90;;;;;;5042175;28;20034;-64
2024/01/05 08:25:14;;;;;;;11.25;1.83;;;5.60;99.90;;;;;;5047241;28;20040;-63
2024/01/05 08:27:40;;;;;;;12.45;2.15;;;5.60;99.90;;;;;;5052326;28;20053;-62
2024/01/05 08:30:07;;;;;;;7.60;2.70;;;5.60;99.90;;;;;;5042336;28;20045;-62
2024/01/05 08:32:33;;;;;;;7.15;2.13;;;5.60;99.90;;;;;;5048545;28;20049;-63
2024/01/05 08:34:59;;;;;;;10.18;2.13;;;5.60;99.90;;;;;;5046503;28;20593;-62
2024/01/05 08:37:25;;;;;;;9.43;1.60;;;5.70;99.90;;;;;;5050914;28;20051;-64
2024/01/05 08:39:50;;;;;;;14.13;2.15;;;5.70;99.90;;;;;;5044370;28;20068;-63
2024/01/05 08:42:16;;;;;;;11.05;2.10;;;5.70;99.90;;;;;;5048532;28;20043;-62
2024/01/05 08:44:42;;;;;;;10.20;2.08;;;5.70;99.90;;;;;;5046373;28;20041;-67
2024/01/05 08:47:07;;;;;;;10.55;1.98;;;5.70;99.90;;;;;;5050714;28;20065;-66
2024/01/05 08:49:33;;;;;;;10.63;2.38;;;5.70;99.90;;;;;;5046062;28;20136;-64
2024/01/05 08:51:59;;;;;;;11.93;2.70;;;5.70;99.90;;;;;;5046249;28;20040;-64
2024/01/05 08:54:25;;;;;;;10.07;1.90;;;5.70;99.90;;;;;;5043790;28;20043;-64
2024/01/05 08:56:50;;;;;;;6.13;1.77;;;5.80;99.90;;;;;;5050203;28;20135;-65
2024/01/05 08:59:16;;;;;;;6.60;2.28;;;5.70;99.90;;;;;;5040063;28;20040;-62
2024/01/05 09:01:41;;;;;;;12.02;2.40;;;5.70;99.90;;;;;;5048128;28;20048;-62
2024/01/05 09:04:10;;;;;;;8.05;1.83;;;5.80;99.90;;;;;;5042980;28;20124;-64
2024/01/05 09:06:39;;;;;;;11.30;2.90;;;5.80;99.90;;;;;;5047509;28;20465;-64
2024/01/05 09:09:05;;;;;;;9.32;1.85;;;5.80;99.90;;;;;;5041696;28;20036;-65
2024/01/05 09:11:30;;;;;;;5.57;2.00;;;5.90;99.90;;;;;;5035191;28;20033;-63
2024/01/05 09:13:56;;;;;;;11.88;2.10;;;5.80;99.90;;;;;;5036210;28;20014;-63
2024/01/05 09:16:22;;;;;;;4.93;1.63;;;5.80;99.90;;;;;;5038747;28;20055;-62
2024/01/05 09:18:49;;;;;;;11.77;1.80;;;5.70;99.90;;;;;;5039141;28;20683;-62
2024/01/05 09:21:15;;;;;;;5.32;1.60;;;5.70;99.90;;;;;;5044663;28;20136;-64
2024/01/05 09:23:41;;;;;;;6.63;1.70;;;5.70;99.90;;;;;;5039350;28;20041;-63
2024/01/05 09:26:16;;;;;;;9.10;2.50;;;5.80;99.90;;;;;;5046336;28;20045;-62
2024/01/05 09:28:42;;;;;;;8.10;2.17;;;5.80;99.90;;;;;;5042717;28;20132;-63
2024/01/05 09:31:12;;;;;;;6.82;1.83;;;5.90;99.90;;;;;;5046284;28;20064;-64
2024/01/05 09:33:38;;;;;;;7.13;1.77;;;5.90;99.90;;;;;;5042139;28;20037;-65
2024/01/05 09:36:04;;;;;;;8.18;2.30;;;6.00;99.90;;;;;;5047272;28;20033;-61
2024/01/05 09:38:30;;;;;;;9.00;2.05;;;6.10;99.90;;;;;;5039226;28;20037;-62
2024/01/05 09:40:55;;;;;;;6.13;1.95;;;6.00;99.90;;;;;;5044314;28;20063;-63
2024/01/05 09:43:24;;;;;;;9.18;2.22;;;6.00;99.90;;;;;;5040081;28;20202;-64
2024/01/05 09:45:51;;;;;;;8.35;1.70;;;6.00;99.90;;;;;;5045164;28;20413;-65
2024/01/05 09:48:21;;;;;;;8.73;1.92;;;6.00;99.90;;;;;;5041638;28;20481;-64
2024/01/05 09:50:57;;;;;;;6.63;1.95;;;5.90;99.90;;;;;;5039326;28;20048;-65
2024/01/05 09:53:23;;;;;;;8.73;2.47;;;5.90;99.90;;;;;;5037844;28;20109;-64
2024/01/05 09:55:50;;;;;;;6.10;1.98;;;5.90;99.90;;;;;;5040616;28;20037;-65
2024/01/05 09:58:16;;;;;;;7.78;1.75;;;5.90;99.90;;;;;;5040690;28;20045;-65
2024/01/05 10:00:46;;;;;;;7.72;1.77;;;5.80;99.90;;;;;;5044151;28;20525;-64
2024/01/05 10:03:21;;;;;;;16.02;2.42;;;5.80;99.90;;;;;;5036950;28;20517;-65
2024/01/05 10:05:50;;;;;;;5.85;1.90;;;5.70;99.90;;;;;;5045144;28;20141;-63
2024/01/05 10:08:16;;;;;;;9.43;1.73;;;5.70;99.90;;;;;;5041375;28;20041;-63
2024/01/05 10:10:48;;;;;;;9.73;1.92;;;5.70;99.90;;;;;;5039692;28;20052;-63
2024/01/05 10:13:14;;;;;;;11.70;2.15;;;5.70;99.90;;;;;;5037041;28;20049;-63
2024/01/05 10:16:02;;;;;;;8.02;2.10;;;5.80;99.90;;;;;;5044720;28;20458;-66
2024/01/05 10:18:29;;;;;;;12.32;2.17;;;5.80;99.90;;;;;;5036577;28;20418;-63
2024/01/05 10:20:57;;;;;;;7.38;1.70;;;5.80;99.90;;;;;;5045808;28;20052;-64
2024/01/05 10:23:22;;;;;;;9.98;2.20;;;5.80;99.90;;;;;;5039141;28;20045;-64
2024/01/05 10:25:49;;;;;;;10.23;1.55;;;5.80;99.90;;;;;;5042074;28;20385;-63
2024/01/05 10:28:31;;;;;;;8.77;2.63;;;5.80;99.90;;;;;;5034001;28;20045;-64
2024/01/05 10:31:13;;;;;;;9.05;1.63;;;5.90;99.90;;;;;;5039407;28;20075;-64
2024/01/05 10:33:52;;;;;;;16.58;2.75;;;5.90;99.90;;;;;;5043870;28;20124;-64
2024/01/05 10:36:22;;;;;;;6.13;1.95;;;6.00;99.90;;;;;;5045618;28;20040;-63
2024/01/05 10:38:48;;;;;;;13.38;2.03;;;6.00;99.90;;;;;;5037754;28;20117;-63
2024/01/05 10:41:19;;;;;;;6.60;1.55;;;6.00;99.90;;;;;;5045304;28;20044;-65
2024/01/05 10:43:46;;;;;;;7.13;1.70;;;6.10;99.90;;;;;;5041561;28;20084;-63
2024/01/05 10:46:14;;;;;;;5.03;1.30;;;6.10;99.90;;;;;;5043664;28;20041;-65
2024/01/05 10:48:40;;;;;;;7.22;1.70;;;6.10;99.90;;;;;;5041400;28;20068;-65
2024/01/05 10:51:06;;;;;;;3.78;1.38;;;6.10;99.90;;;;;;5045048;28;20488;-64
2024/01/05 10:53:34;;;;;;;5.10;1.05;;;6.20;99.90;;;;;;5040664;28;20036;-63
2024/01/05 10:56:01;;;;;;;5.47;1.65;;;6.20;99.90;;;;;;5044198;28;20049;-62
2024/01/05 10:58:27;;;;;;;7.00;1.52;;;6.20;99.90;;;;;;5038377;28;20040;-64
2024/01/05 11:00:55;;;;;;;7.25;1.83;;;6.20;99.90;;;;;;5034310;28;20540;-61
2024/01/05 11:03:24;;;;;;;4.15;1.30;;;6.20;99.90;;;;;;5042823;28;20040;-64
2024/01/05 11:05:49;;;;;;;4.80;1.40;;;6.20;99.90;;;;;;5043454;28;20057;-67
2024/01/05 11:08:22;;;;;;;3.88;1.10;;;6.20;99.90;;;;;;5040555;28;20045;-66
2024/01/05 11:11:23;;;;;;;4.10;1.23;;;6.10;99.90;;;;;;5041278;28;20382;-66
2024/01/05 11:14:16;;;;;;;4.07;1.10;;;6.10;99.90;;;;;;5038766;28;20045;-63
2024/01/05 11:17:08;;;;;;;6.53;1.08;;;6.10;99.90;;;;;;5054393;28;20076;-61
2024/01/05 11:19:46;;;;;;;6.50;1.60;;;6.20;99.90;;;;;;5022035;28;20704;-64
2024/01/05 11:22:17;;;;;;;5.47;1.27;;;6.20;99.90;;;;;;5052870;28;20048;-63
2024/01/05 11:24:43;;;;;;;3.17;1.00;;;6.10;99.90;;;;;;5045135;28;20072;-62
2024/01/05 11:27:31;;;;;;;8.23;1.85;;;6.10;99.90;;;;;;5053476;28;20608;-63
2024/01/05 11:29:57;;;;;;;7.13;1.20;;;6.00;99.90;;;;;;5048171;28;20044;-63
2024/01/05 11:32:44;;;;;;;6.35;1.17;;;6.00;99.90;;;;;;5058396;28;20045;-65
2024/01/05 11:35:16;;;;;;;6.32;0.90;;;6.00;99.90;;;;;;5047441;28;20028;-64
2024/01/05 11:37:43;;;;;;;7.47;0.80;;;6.00;99.90;;;;;;5042352;28;20874;-63
2024/01/05 11:40:25;;;;;;;4.35;1.27;;;5.90;99.90;;;;;;5043658;28;21390;-65
2024/01/05 11:42:52;;;;;;;4.22;0.80;;;5.90;99.90;;;;;;5042939;28;20131;-64
2024/01/05 11:45:47;;;;;;;3.85;1.15;;;5.90;99.90;;;;;;5043148;28;20085;-65
2024/01/05 11:48:34;;;;;;;2.85;1.00;;;5.90;99.90;;;;;;5047373;28;20570;-64
2024/01/05 11:51:03;;;;;;;1.73;0.60;;;6.00;99.90;;;;;;5044955;28;20037;-67
2024/01/05 11:53:29;;;;;;;4.57;1.20;;;6.10;99.90;;;;;;5047181;28;20033;-66
2024/01/05 11:55:59;;;;;;;2.38;0.95;;;6.20;99.90;;;;;;5041768;28;20588;-66
2024/01/05 11:58:27;;;;;;;2.33;0.80;;;6.20;99.90;;;;;;5051855;28;20049;-64
2024/01/05 12:00:55;;;;;;;5.55;0.88;;;6.20;99.90;;;;;;5043698;28;20048;-65
2024/01/05 12:03:23;;;;;;;4.60;1.10;;;6.20;99.90;;;;;;5042885;28;20057;-66
2024/01/05 12:05:51;;;;;;;3.45;0.80;;;6.20;99.90;;;;;;5044573;28;20060;-64
2024/01/05 12:08:17;;;;;;;3.60;0.65;;;6.20;99.90;;;;;;5036625;28;20043;-65
2024/01/05 12:10:42;;;;;;;3.97;0.70;;;6.20;99.90;;;;;;5042145;28;20041;-65
2024/01/05 12:13:08;;;;;;;2.50;0.60;;;6.10;99.90;;;;;;5042834;28;20564;-66
2024/01/05 12:15:35;;;;;;;1.95;0.65;;;6.10;99.90;;;;;;5040785;28;20120;-66
2024/01/05 12:18:07;;;;;;;4.30;0.70;;;6.10;99.90;;;;;;5049349;28;20133;-64
2024/01/05 12:20:34;;;;;;;1.90;0.70;;;6.10;99.90;;;;;;5052123;28;20051;-64
2024/01/05 12:22:59;;;;;;;3.88;0.65;;;6.10;99.90;;;;;;5044303;28;20052;-66
2024/01/05 12:25:26;;;;;;;3.60;0.70;;;6.10;99.90;;;;;;5051453;28;20041;-65
2024/01/05 12:27:52;;;;;;;3.13;0.68;;;6.10;99.90;;;;;;5044692;28;20055;-64
2024/01/05 12:30:19;;;;;;;3.45;0.88;;;6.00;99.90;;;;;;5046395;28;20592;-64
2024/01/05 12:32:47;;;;;;;2.95;0.90;;;6.10;99.90;;;;;;5043981;28;20127;-64
2024/01/05 12:35:13;;;;;;;3.47;0.80;;;6.10;99.90;;;;;;5046876;28;20033;-64
2024/01/05 12:37:50;;;;;;;3.22;0.77;;;6.10;99.90;;;;;;5045002;28;20410;-65
2024/01/05 12:40:25;;;;;;;4.20;1.42;;;6.10;99.90;;;;;;5045413;28;20049;-65
2024/01/05 12:42:52;;;;;;;5.60;0.80;;;6.10;99.90;;;;;;5046806;28;20123;-63
2024/01/05 12:45:18;;;;;;;6.68;0.88;;;6.00;99.90;;;;;;5045962;28;20040;-65
2024/01/05 12:47:44;;;;;;;2.53;0.73;;;6.10;99.90;;;;;;5047080;28;20049;-66
2024/01/05 12:50:24;;;;;;;4.38;1.02;;;6.10;99.90;;;;;;5045344;28;20043;-65
2024/01/05 12:52:49;;;;;;;3.00;0.93;;;6.10;99.90;;;;;;5045416;28;20099;-66